createdAt,value
2019-03-13T00:00:13.682Z,26.30
2019-03-13T00:01:39.912Z,29.92
2019-03-13T00:02:46.022Z,29.00
2019-03-13T00:03:52.501Z,27.75
2019-03-13T00:04:58.970Z,30.23
2019-03-13T00:06:06.310Z,28.73
2019-03-13T00:07:12.693Z,27.82
2019-03-13T00:08:19.137Z,29.50
2019-03-13T00:09:25.479Z,25.65
2019-03-13T00:10:32.712Z,27.87
2019-03-13T00:11:39.268Z,26.48
2019-03-13T00:12:45.562Z,27.07
2019-03-13T00:13:51.882Z,27.65
2019-03-13T00:14:57.993Z,28.42
2019-03-13T00:16:04.689Z,27.95
2019-03-13T00:17:10.999Z,27.93
2019-03-13T00:18:17.351Z,25.65
2019-03-13T00:19:24.462Z,28.45
2019-03-13T00:20:30.868Z,31.65
2019-03-13T00:21:37.129Z,31.25
2019-03-13T00:22:43.474Z,25.95
2019-03-13T00:23:49.753Z,26.57
2019-03-13T00:24:56.406Z,29.75
2019-03-13T00:26:03.783Z,28.55
2019-03-13T00:27:10.160Z,31.23
2019-03-13T00:28:16.311Z,34.08
2019-03-13T00:29:22.399Z,27.93
2019-03-13T00:30:28.833Z,28.47
2019-03-13T00:31:35.068Z,27.00
2019-03-13T00:32:41.476Z,29.18
2019-03-13T00:33:47.821Z,25.80
2019-03-13T00:34:54.266Z,30.52
2019-03-13T00:36:00.717Z,25.97
2019-03-13T00:37:07.001Z,28.15
2019-03-13T00:38:13.512Z,29.50
2019-03-13T00:39:19.771Z,33.78
2019-03-13T00:40:26.111Z,31.15
2019-03-13T00:41:32.296Z,29.80
2019-03-13T00:42:38.643Z,27.67
2019-03-13T00:43:45.091Z,30.92
2019-03-13T00:44:51.540Z,31.07
2019-03-13T00:45:57.931Z,29.87
2019-03-13T00:47:04.301Z,30.00
2019-03-13T00:48:10.692Z,32.75
2019-03-13T00:49:17.289Z,35.80
2019-03-13T00:50:25.671Z,34.15
2019-03-13T00:51:31.859Z,31.62
2019-03-13T00:52:38.113Z,31.33
2019-03-13T00:53:44.529Z,33.00
2019-03-13T00:54:50.909Z,31.97
2019-03-13T00:55:57.254Z,32.48
2019-03-13T00:57:03.880Z,34.50
2019-03-13T00:58:10.271Z,34.20
2019-03-13T00:59:16.620Z,31.45
2019-03-13T01:00:51.671Z,39.00
2019-03-13T01:02:05.030Z,32.45
2019-03-13T01:03:24.260Z,30.57
2019-03-13T01:04:37.671Z,33.75
2019-03-13T01:05:49.967Z,37.67
2019-03-13T01:07:07.998Z,33.83
2019-03-13T01:08:14.571Z,32.35
2019-03-13T01:09:20.960Z,35.25
2019-03-13T01:10:30.410Z,34.67
2019-03-13T01:11:36.804Z,34.63
2019-03-13T01:12:43.166Z,33.90
2019-03-13T01:13:49.569Z,33.78
2019-03-13T01:14:55.781Z,35.10
2019-03-13T01:16:02.004Z,37.95
2019-03-13T01:17:08.885Z,33.42
2019-03-13T01:18:15.221Z,34.48
2019-03-13T01:19:21.582Z,37.13
2019-03-13T01:20:28.007Z,31.42
2019-03-13T01:21:35.262Z,35.30
2019-03-13T01:22:41.665Z,33.18
2019-03-13T01:23:48.060Z,39.45
2019-03-13T01:24:54.381Z,33.67
2019-03-13T01:26:01.001Z,34.38
2019-03-13T01:27:07.310Z,34.18
2019-03-13T01:28:13.749Z,38.25
2019-03-13T01:29:20.086Z,40.08
2019-03-13T01:30:27.983Z,35.50
2019-03-13T01:31:52.197Z,38.95
2019-03-13T01:33:03.979Z,32.83
2019-03-13T01:34:44.738Z,40.43
2019-03-13T01:35:56.435Z,39.63
2019-03-13T01:37:02.947Z,35.33
2019-03-13T01:38:10.571Z,37.53
2019-03-13T01:39:16.963Z,36.58
2019-03-13T01:40:23.339Z,39.90
2019-03-13T01:41:29.835Z,39.42
2019-03-13T01:42:36.223Z,39.67
2019-03-13T01:43:42.637Z,39.13
2019-03-13T01:44:48.978Z,40.17
2019-03-13T01:45:55.349Z,40.92
2019-03-13T01:47:02.710Z,38.45
2019-03-13T01:48:10.055Z,36.75
2019-03-13T01:49:16.278Z,37.23
2019-03-13T01:50:22.701Z,36.83
2019-03-13T01:51:29.048Z,40.75
2019-03-13T01:52:35.516Z,36.95
2019-03-13T01:53:41.580Z,37.30
2019-03-13T01:54:47.893Z,37.70
2019-03-13T01:55:54.514Z,41.02
2019-03-13T01:57:00.742Z,36.28
2019-03-13T01:58:08.048Z,35.78
2019-03-13T01:59:14.596Z,38.55
2019-03-13T02:00:21.170Z,35.85
2019-03-13T02:01:27.422Z,36.98
2019-03-13T02:02:33.789Z,39.05
2019-03-13T02:03:40.325Z,37.67
2019-03-13T02:04:46.606Z,39.78
2019-03-13T02:05:52.923Z,39.08
2019-03-13T02:06:59.239Z,38.25
2019-03-13T02:08:05.591Z,36.65
2019-03-13T02:09:11.961Z,39.88
2019-03-13T02:10:18.479Z,38.08
2019-03-13T02:11:24.889Z,35.17
2019-03-13T02:12:31.252Z,36.20
2019-03-13T02:13:37.602Z,37.60
2019-03-13T02:14:43.927Z,35.43
2019-03-13T02:15:51.316Z,39.38
2019-03-13T02:16:57.662Z,32.05
2019-03-13T02:18:03.800Z,37.05
2019-03-13T02:19:10.255Z,38.02
2019-03-13T02:20:16.920Z,35.33
2019-03-13T02:21:23.483Z,39.25
2019-03-13T02:22:29.570Z,31.90
2019-03-13T02:23:36.006Z,36.38
2019-03-13T02:24:42.414Z,39.05
2019-03-13T02:25:48.759Z,42.05
2019-03-13T02:26:55.283Z,38.35
2019-03-13T02:28:01.519Z,36.40
2019-03-13T02:29:07.753Z,34.55
2019-03-13T02:30:14.608Z,34.98
2019-03-13T02:31:21.062Z,37.38
2019-03-13T02:32:27.389Z,33.48
2019-03-13T02:33:34.720Z,35.40
2019-03-13T02:34:41.066Z,36.53
2019-03-13T02:35:47.286Z,31.60
2019-03-13T02:36:53.731Z,35.20
2019-03-13T02:38:00.556Z,34.00
2019-03-13T02:39:07.130Z,37.70
2019-03-13T02:40:14.855Z,32.13
2019-03-13T02:41:21.330Z,38.63
2019-03-13T02:42:27.631Z,32.42
2019-03-13T02:43:34.061Z,32.75
2019-03-13T02:44:40.362Z,36.50
2019-03-13T02:45:46.614Z,32.00
2019-03-13T02:46:52.871Z,33.45
2019-03-13T02:47:59.163Z,28.90
2019-03-13T02:49:05.656Z,34.05
2019-03-13T02:50:12.651Z,33.40
2019-03-13T02:51:19.032Z,31.42
2019-03-13T02:52:25.601Z,25.62
2019-03-13T02:53:31.932Z,30.23
2019-03-13T02:54:38.316Z,28.75
2019-03-13T02:55:44.555Z,31.20
2019-03-13T02:56:51.021Z,33.13
2019-03-13T02:57:57.386Z,31.30
2019-03-13T02:59:03.728Z,31.33
2019-03-13T03:00:12.092Z,29.75
2019-03-13T03:01:25.621Z,30.35
2019-03-13T03:02:39.677Z,29.65
2019-03-13T03:03:52.165Z,30.95
2019-03-13T03:04:58.557Z,27.52
2019-03-13T03:06:04.885Z,29.72
2019-03-13T03:07:12.952Z,30.05
2019-03-13T03:08:20.452Z,29.75
2019-03-13T03:09:26.705Z,32.28
2019-03-13T03:10:32.952Z,29.18
2019-03-13T03:11:39.545Z,29.37
2019-03-13T03:12:45.997Z,30.20
2019-03-13T03:13:52.660Z,28.83
2019-03-13T03:15:06.717Z,25.40
2019-03-13T03:16:12.981Z,27.45
2019-03-13T03:17:20.347Z,25.55
2019-03-13T03:18:26.825Z,27.35
2019-03-13T03:19:33.214Z,33.35
2019-03-13T03:20:39.530Z,26.37
2019-03-13T03:21:45.869Z,27.07
2019-03-13T03:22:52.313Z,28.23
2019-03-13T03:23:58.662Z,26.90
2019-03-13T03:25:04.868Z,27.02
2019-03-13T03:26:11.095Z,31.93
2019-03-13T03:27:17.483Z,29.92
2019-03-13T03:28:24.110Z,27.95
2019-03-13T03:29:30.553Z,28.83
2019-03-13T03:30:36.889Z,29.02
2019-03-13T03:31:43.173Z,26.37
2019-03-13T03:32:49.459Z,27.50
2019-03-13T03:34:05.255Z,28.47
2019-03-13T03:35:11.750Z,28.77
2019-03-13T03:36:17.764Z,25.43
2019-03-13T03:37:24.262Z,27.55
2019-03-13T03:38:30.564Z,27.98
2019-03-13T03:39:36.891Z,26.23
2019-03-13T03:40:43.106Z,28.02
2019-03-13T03:41:49.437Z,28.00
2019-03-13T03:42:55.690Z,27.73
2019-03-13T03:44:02.066Z,28.50
2019-03-13T03:45:08.826Z,27.50
2019-03-13T03:46:15.090Z,27.27
2019-03-13T03:47:21.431Z,26.30
2019-03-13T03:48:27.639Z,25.82
2019-03-13T03:49:33.959Z,27.27
2019-03-13T03:50:40.418Z,27.58
2019-03-13T03:51:46.641Z,27.05
2019-03-13T03:52:52.943Z,25.02
2019-03-13T03:53:59.683Z,25.37
2019-03-13T03:55:09.214Z,26.55
2019-03-13T03:56:15.516Z,25.08
2019-03-13T03:57:21.755Z,25.85
2019-03-13T03:58:29.683Z,28.70
2019-03-13T03:59:36.178Z,26.35
2019-03-13T04:00:43.584Z,22.60
2019-03-13T04:01:51.083Z,30.08
2019-03-13T04:02:57.293Z,26.77
2019-03-13T04:04:03.655Z,28.80
2019-03-13T04:05:10.229Z,28.70
2019-03-13T04:06:17.042Z,26.90
2019-03-13T04:07:23.474Z,25.97
2019-03-13T04:08:29.810Z,27.48
2019-03-13T04:09:36.101Z,21.68
2019-03-13T04:10:44.209Z,27.42
2019-03-13T04:11:50.545Z,25.92
2019-03-13T04:12:56.618Z,25.92
2019-03-13T04:14:02.952Z,22.60
2019-03-13T04:15:09.446Z,27.25
2019-03-13T04:16:15.762Z,25.75
2019-03-13T04:17:22.197Z,29.02
2019-03-13T04:18:28.609Z,28.45
2019-03-13T04:19:34.970Z,28.90
2019-03-13T04:20:41.319Z,27.65
2019-03-13T04:21:47.656Z,29.95
2019-03-13T04:22:54.059Z,36.48
2019-03-13T04:24:00.423Z,29.65
2019-03-13T04:25:15.637Z,30.75
2019-03-13T04:26:22.044Z,31.80
2019-03-13T04:27:28.279Z,32.85
2019-03-13T04:28:34.534Z,32.05
2019-03-13T04:29:41.094Z,28.55
2019-03-13T04:30:47.462Z,30.15
2019-03-13T04:31:53.716Z,28.07
2019-03-13T04:33:00.157Z,28.83
2019-03-13T04:34:06.493Z,30.72
2019-03-13T04:35:12.750Z,34.55
2019-03-13T04:36:18.781Z,31.35
2019-03-13T04:37:25.069Z,28.35
2019-03-13T04:38:31.648Z,27.07
2019-03-13T04:39:38.012Z,27.87
2019-03-13T04:40:44.386Z,27.82
2019-03-13T04:41:50.704Z,25.23
2019-03-13T04:42:57.311Z,26.97
2019-03-13T04:44:03.486Z,29.05
2019-03-13T04:45:10.063Z,25.05
2019-03-13T04:46:17.004Z,27.52
2019-03-13T04:47:25.143Z,28.75
2019-03-13T04:48:32.082Z,25.52
2019-03-13T04:49:57.491Z,20.85
2019-03-13T04:51:03.898Z,24.25
2019-03-13T04:52:10.177Z,25.70
2019-03-13T04:53:17.666Z,22.35
2019-03-13T04:54:24.670Z,21.68
2019-03-13T04:55:31.979Z,21.82
2019-03-13T04:56:38.654Z,21.02
2019-03-13T04:57:45.670Z,21.60
2019-03-13T04:58:52.879Z,20.57
2019-03-13T04:59:59.745Z,21.30
2019-03-13T05:01:07.704Z,18.77
2019-03-13T05:02:14.897Z,16.90
2019-03-13T05:03:21.870Z,19.20
2019-03-13T05:04:28.272Z,14.35
2019-03-13T05:05:52.584Z,16.00
2019-03-13T05:06:59.101Z,20.65
2019-03-13T05:08:06.953Z,18.87
2019-03-13T05:09:18.934Z,18.00
2019-03-13T05:10:25.356Z,17.95
2019-03-13T05:11:31.634Z,20.57
2019-03-13T05:12:37.989Z,13.65
2019-03-13T05:13:44.550Z,17.32
2019-03-13T05:14:51.316Z,18.05
2019-03-13T05:15:58.391Z,18.73
2019-03-13T05:17:05.381Z,16.57
2019-03-13T05:18:12.579Z,18.00
2019-03-13T05:19:19.830Z,17.77
2019-03-13T05:20:27.345Z,15.50
2019-03-13T05:21:34.681Z,15.40
2019-03-13T05:22:42.098Z,16.45
2019-03-13T05:23:48.982Z,14.55
2019-03-13T05:24:56.099Z,17.67
2019-03-13T05:26:03.374Z,17.27
2019-03-13T05:27:10.066Z,17.80
2019-03-13T05:28:17.277Z,15.53
2019-03-13T05:29:24.348Z,17.37
2019-03-13T05:30:31.451Z,14.43
2019-03-13T05:31:38.966Z,15.85
2019-03-13T05:32:46.041Z,14.90
2019-03-13T05:33:53.321Z,13.08
2019-03-13T05:35:00.437Z,15.03
2019-03-13T05:36:07.544Z,13.43
2019-03-13T05:37:14.590Z,14.95
2019-03-13T05:38:21.739Z,15.53
2019-03-13T05:39:29.017Z,13.75
2019-03-13T05:40:36.087Z,14.23
2019-03-13T05:41:43.357Z,15.55
2019-03-13T05:42:50.511Z,16.57
2019-03-13T05:43:57.373Z,15.45
2019-03-13T05:45:04.309Z,16.82
2019-03-13T05:46:11.326Z,17.95
2019-03-13T05:47:18.349Z,15.55
2019-03-13T05:48:25.274Z,13.13
2019-03-13T05:49:32.498Z,13.53
2019-03-13T05:50:39.294Z,16.30
2019-03-13T05:51:46.609Z,15.83
2019-03-13T05:52:53.793Z,16.57
2019-03-13T05:54:00.840Z,13.38
2019-03-13T05:55:07.995Z,13.32
2019-03-13T05:56:15.149Z,15.72
2019-03-13T05:57:22.359Z,15.18
2019-03-13T05:58:29.383Z,16.67
2019-03-13T05:59:36.239Z,16.82
2019-03-13T06:00:43.652Z,14.38
2019-03-13T06:01:51.006Z,15.28
2019-03-13T06:02:59.338Z,13.48
2019-03-13T06:04:07.209Z,13.50
2019-03-13T06:05:14.355Z,13.55
2019-03-13T06:06:21.503Z,16.50
2019-03-13T06:07:28.890Z,15.28
2019-03-13T06:08:35.969Z,16.73
2019-03-13T06:09:42.970Z,17.95
2019-03-13T06:10:49.664Z,17.30
2019-03-13T06:11:56.827Z,16.90
2019-03-13T06:13:03.438Z,14.53
2019-03-13T06:14:10.314Z,13.70
2019-03-13T06:15:17.728Z,16.77
2019-03-13T06:16:25.793Z,15.63
2019-03-13T06:17:33.012Z,15.10
2019-03-13T06:18:39.961Z,15.88
2019-03-13T06:19:47.841Z,14.43
2019-03-13T06:20:55.939Z,16.57
2019-03-13T06:22:02.913Z,16.27
2019-03-13T06:23:09.970Z,12.13
2019-03-13T06:24:16.879Z,14.90
2019-03-13T06:25:25.370Z,13.68
2019-03-13T06:26:32.390Z,13.78
2019-03-13T06:27:39.378Z,19.98
2019-03-13T06:28:47.813Z,15.45
2019-03-13T06:29:55.055Z,15.48
2019-03-13T06:31:02.536Z,15.00
2019-03-13T06:32:09.355Z,11.97
2019-03-13T06:33:16.863Z,12.98
2019-03-13T06:34:24.195Z,13.85
2019-03-13T06:35:31.577Z,13.70
2019-03-13T06:36:38.547Z,14.43
2019-03-13T06:37:45.838Z,13.88
2019-03-13T06:38:52.926Z,17.62
2019-03-13T06:40:00.383Z,13.50
2019-03-13T06:41:07.287Z,13.32
2019-03-13T06:42:15.150Z,13.53
2019-03-13T06:43:22.441Z,13.50
2019-03-13T06:44:29.572Z,14.10
2019-03-13T06:45:36.640Z,13.35
2019-03-13T06:46:43.750Z,14.90
2019-03-13T06:47:51.020Z,12.07
2019-03-13T06:49:02.779Z,9.90
2019-03-13T06:50:14.852Z,15.60
2019-03-13T06:51:22.614Z,16.48
2019-03-13T06:52:31.619Z,11.78
2019-03-13T06:53:38.412Z,12.73
2019-03-13T06:54:45.435Z,11.95
2019-03-13T06:55:52.521Z,12.15
2019-03-13T06:56:59.572Z,10.85
2019-03-13T06:58:06.316Z,12.03
2019-03-13T06:59:26.531Z,13.25
2019-03-13T07:00:54.985Z,12.25
2019-03-13T07:02:26.221Z,10.25
2019-03-13T07:03:55.047Z,12.40
2019-03-13T07:05:24.961Z,12.68
2019-03-13T07:06:53.934Z,11.73
2019-03-13T07:08:27.338Z,10.55
2019-03-13T07:09:45.987Z,10.95
2019-03-13T07:11:10.768Z,11.08
2019-03-13T07:12:41.023Z,11.90
2019-03-13T07:14:17.134Z,12.45
2019-03-13T07:15:42.945Z,11.93
2019-03-13T07:16:56.298Z,11.18
2019-03-13T07:18:12.881Z,10.23
2019-03-13T07:19:51.166Z,11.95
2019-03-13T07:21:16.666Z,12.35
2019-03-13T07:22:45.246Z,8.75
2019-03-13T07:24:17.206Z,11.28
2019-03-13T07:25:46.974Z,12.23
2019-03-13T07:26:59.291Z,10.05
2019-03-13T07:28:25.427Z,11.88
2019-03-13T07:29:50.007Z,10.75
2019-03-13T07:31:16.111Z,10.05
2019-03-13T07:32:48.078Z,8.80
2019-03-13T07:34:24.137Z,11.57
2019-03-13T07:36:05.395Z,10.03
2019-03-13T07:37:30.078Z,10.10
2019-03-13T07:38:54.932Z,10.80
2019-03-13T07:40:19.984Z,14.05
2019-03-13T07:41:46.203Z,10.35
2019-03-13T07:43:16.618Z,11.12
2019-03-13T07:44:54.206Z,9.35
2019-03-13T07:46:20.148Z,11.57
2019-03-13T07:47:48.782Z,10.93
2019-03-13T07:49:16.349Z,9.85
2019-03-13T07:50:45.527Z,9.13
2019-03-13T07:52:19.048Z,10.15
2019-03-13T07:53:37.097Z,10.13
2019-03-13T07:55:06.474Z,11.45
2019-03-13T07:56:37.858Z,9.73
2019-03-13T07:58:09.268Z,10.20
2019-03-13T07:59:23.952Z,10.93
2019-03-13T08:00:47.688Z,12.28
2019-03-13T08:02:10.793Z,13.25
2019-03-13T08:03:43.544Z,10.20
2019-03-13T08:05:07.347Z,9.63
2019-03-13T08:06:42.273Z,11.63
2019-03-13T08:08:05.828Z,12.90
2019-03-13T08:09:26.723Z,10.70
2019-03-13T08:10:51.618Z,9.23
2019-03-13T08:12:36.055Z,9.55
2019-03-13T08:14:01.591Z,13.70
2019-03-13T08:15:33.340Z,10.20
2019-03-13T08:16:47.320Z,11.50
2019-03-13T08:18:13.202Z,8.03
2019-03-13T08:19:42.774Z,10.93
2019-03-13T08:21:07.850Z,8.48
2019-03-13T08:22:43.188Z,12.95
2019-03-13T08:24:24.563Z,13.08
2019-03-13T08:25:43.905Z,10.10
2019-03-13T08:27:15.983Z,9.88
2019-03-13T08:28:47.939Z,10.25
2019-03-13T08:30:20.213Z,9.58
2019-03-13T08:31:51.745Z,7.22
2019-03-13T08:33:13.113Z,11.95
2019-03-13T08:34:45.626Z,10.88
2019-03-13T08:36:14.160Z,10.80
2019-03-13T08:37:41.999Z,10.40
2019-03-13T08:39:07.156Z,11.53
2019-03-13T08:40:31.194Z,11.10
2019-03-13T08:42:00.183Z,13.53
2019-03-13T08:43:20.001Z,12.35
2019-03-13T08:44:56.269Z,11.70
2019-03-13T08:46:22.380Z,10.68
2019-03-13T08:47:51.661Z,10.20
2019-03-13T08:49:17.777Z,11.10
2019-03-13T08:50:58.875Z,10.35
2019-03-13T08:52:17.231Z,9.10
2019-03-13T08:53:49.125Z,12.35
2019-03-13T08:55:18.315Z,10.75
2019-03-13T08:56:38.360Z,10.82
2019-03-13T08:58:01.747Z,12.35
2019-03-13T08:59:30.280Z,9.43
2019-03-13T09:00:47.304Z,13.08
2019-03-13T09:02:09.832Z,11.00
2019-03-13T09:03:33.699Z,12.50
2019-03-13T09:04:57.534Z,9.93
2019-03-13T09:06:23.935Z,11.70
2019-03-13T09:07:53.932Z,11.25
2019-03-13T09:09:10.039Z,11.88
2019-03-13T09:10:28.080Z,14.15
2019-03-13T09:11:51.477Z,10.08
2019-03-13T09:13:16.197Z,11.22
2019-03-13T09:14:41.702Z,13.10
2019-03-13T09:16:10.851Z,12.65
2019-03-13T09:17:40.393Z,9.83
2019-03-13T09:19:06.831Z,12.60
2019-03-13T09:20:24.013Z,9.25
2019-03-13T09:21:37.705Z,11.70
2019-03-13T09:23:04.118Z,12.33
2019-03-13T09:24:36.242Z,11.28
2019-03-13T09:25:59.488Z,13.48
2019-03-13T09:27:32.100Z,9.85
2019-03-13T09:29:08.585Z,11.60
2019-03-13T09:30:28.905Z,11.10
2019-03-13T09:32:13.619Z,7.95
2019-03-13T09:33:48.594Z,10.82
2019-03-13T09:35:17.783Z,10.65
2019-03-13T09:36:35.208Z,10.88
2019-03-13T09:38:19.432Z,8.30
2019-03-13T09:39:48.655Z,9.28
2019-03-13T09:41:11.200Z,10.72
2019-03-13T09:42:35.941Z,9.03
2019-03-13T09:44:00.027Z,10.40
2019-03-13T09:45:35.863Z,10.35
2019-03-13T09:47:02.968Z,10.50
2019-03-13T09:48:37.298Z,9.83
2019-03-13T09:50:03.440Z,10.68
2019-03-13T09:51:34.355Z,10.98
2019-03-13T09:53:10.013Z,9.70
2019-03-13T09:54:46.323Z,11.88
2019-03-13T09:56:23.038Z,8.23
2019-03-13T09:57:54.794Z,6.22
2019-03-13T09:59:42.651Z,10.72
2019-03-13T10:00:54.768Z,9.43
2019-03-13T10:02:21.045Z,9.65
2019-03-13T10:03:45.240Z,11.60
2019-03-13T10:05:17.266Z,11.20
2019-03-13T10:06:55.776Z,12.55
2019-03-13T10:08:17.686Z,10.78
2019-03-13T10:09:33.855Z,10.38
2019-03-13T10:10:58.966Z,10.85
2019-03-13T10:12:23.969Z,12.53
2019-03-13T10:13:41.752Z,10.03
2019-03-13T10:14:53.616Z,9.60
2019-03-13T10:16:27.142Z,10.23
2019-03-13T10:18:00.079Z,9.53
2019-03-13T10:19:35.104Z,11.85
2019-03-13T10:20:59.143Z,10.70
2019-03-13T10:22:25.467Z,11.22
2019-03-13T10:23:56.151Z,11.28
2019-03-13T10:25:21.996Z,12.07
2019-03-13T10:26:39.760Z,11.70
2019-03-13T10:28:08.924Z,10.82
2019-03-13T10:29:30.495Z,9.03
2019-03-13T10:31:03.195Z,12.90
2019-03-13T10:32:27.882Z,11.30
2019-03-13T10:33:45.555Z,13.08
2019-03-13T10:35:06.347Z,9.70
2019-03-13T10:36:44.295Z,10.13
2019-03-13T10:38:14.467Z,11.20
2019-03-13T10:39:44.622Z,10.32
2019-03-13T10:41:22.828Z,11.33
2019-03-13T10:42:55.203Z,11.78
2019-03-13T10:44:18.644Z,11.18
2019-03-13T10:45:35.602Z,13.43
2019-03-13T10:47:13.764Z,10.65
2019-03-13T10:48:40.232Z,13.53
2019-03-13T10:50:20.064Z,12.47
2019-03-13T10:51:44.040Z,10.55
2019-03-13T10:53:16.460Z,12.28
2019-03-13T10:54:48.526Z,13.30
2019-03-13T10:56:13.548Z,12.75
2019-03-13T10:57:31.499Z,10.88
2019-03-13T10:59:00.638Z,13.05
2019-03-13T11:00:30.170Z,11.95
2019-03-13T11:02:05.456Z,15.20
2019-03-13T11:03:35.107Z,13.78
2019-03-13T11:05:12.961Z,14.65
2019-03-13T11:06:54.099Z,14.13
2019-03-13T11:08:04.145Z,14.07
2019-03-13T11:09:31.406Z,13.68
2019-03-13T11:11:03.775Z,11.50
2019-03-13T11:12:25.230Z,12.50
2019-03-13T11:13:54.786Z,11.93
2019-03-13T11:15:23.564Z,10.95
2019-03-13T11:16:45.397Z,11.95
2019-03-13T11:18:17.867Z,12.10
2019-03-13T11:19:34.259Z,14.93
2019-03-13T11:20:58.968Z,11.33
2019-03-13T11:22:30.879Z,11.88
2019-03-13T11:23:54.998Z,13.80
2019-03-13T11:25:08.124Z,13.58
2019-03-13T11:26:49.348Z,12.78
2019-03-13T11:28:18.648Z,11.08
2019-03-13T11:29:35.712Z,9.13
2019-03-13T11:31:01.525Z,13.00
2019-03-13T11:32:33.107Z,9.33
2019-03-13T11:34:00.347Z,12.75
2019-03-13T11:35:27.181Z,11.12
2019-03-13T11:37:02.625Z,11.93
2019-03-13T11:38:48.406Z,11.97
2019-03-13T11:40:14.551Z,13.53
2019-03-13T11:41:43.401Z,11.88
2019-03-13T11:43:09.383Z,10.68
2019-03-13T11:44:30.931Z,11.20
2019-03-13T11:46:03.191Z,10.13
2019-03-13T11:47:20.783Z,12.23
2019-03-13T11:48:36.450Z,13.78
2019-03-13T11:50:20.486Z,12.53
2019-03-13T11:51:46.653Z,12.28
2019-03-13T11:53:06.609Z,15.23
2019-03-13T11:54:32.773Z,13.25
2019-03-13T11:55:56.923Z,13.78
2019-03-13T11:57:41.883Z,14.45
2019-03-13T11:58:57.687Z,11.83
2019-03-13T12:00:30.127Z,16.52
2019-03-13T12:01:52.427Z,12.73
2019-03-13T12:03:21.750Z,11.65
2019-03-13T12:04:46.547Z,15.13
2019-03-13T12:06:15.511Z,14.78
2019-03-13T12:07:44.803Z,15.30
2019-03-13T12:09:11.038Z,12.00
2019-03-13T12:10:39.035Z,14.13
2019-03-13T12:12:04.094Z,14.45
2019-03-13T12:13:28.237Z,13.93
2019-03-13T12:15:00.069Z,11.78
2019-03-13T12:16:29.622Z,14.05
2019-03-13T12:17:52.816Z,13.48
2019-03-13T12:19:25.336Z,14.28
2019-03-13T12:20:59.458Z,16.00
2019-03-13T12:22:25.363Z,13.75
2019-03-13T12:24:00.670Z,14.98
2019-03-13T12:25:33.023Z,11.95
2019-03-13T12:26:53.293Z,9.28
2019-03-13T12:28:11.839Z,10.45
2019-03-13T12:29:40.039Z,10.15
2019-03-13T12:31:14.437Z,14.55
2019-03-13T12:32:41.977Z,14.00
2019-03-13T12:34:06.467Z,14.40
2019-03-13T12:35:34.978Z,17.10
2019-03-13T12:37:16.742Z,14.45
2019-03-13T12:38:58.444Z,11.97
2019-03-13T12:40:23.623Z,12.88
2019-03-13T12:41:48.822Z,11.85
2019-03-13T12:43:18.094Z,12.50
2019-03-13T12:44:34.853Z,9.13
2019-03-13T12:46:07.282Z,15.72
2019-03-13T12:47:25.495Z,15.45
2019-03-13T12:48:49.387Z,15.83
2019-03-13T12:50:14.537Z,13.55
2019-03-13T12:51:39.364Z,12.73
2019-03-13T12:53:08.660Z,10.72
2019-03-13T12:54:30.887Z,12.78
2019-03-13T12:55:57.727Z,10.13
2019-03-13T12:57:25.992Z,13.72
2019-03-13T12:58:54.774Z,13.83
2019-03-13T13:00:15.830Z,12.40
2019-03-13T13:01:45.066Z,11.40
2019-03-13T13:03:11.061Z,10.95
2019-03-13T13:04:25.790Z,9.58
2019-03-13T13:05:57.919Z,8.78
2019-03-13T13:07:19.754Z,11.18
2019-03-13T13:08:45.839Z,8.45
2019-03-13T13:10:12.368Z,9.03
2019-03-13T13:11:37.475Z,9.10
2019-03-13T13:13:09.921Z,7.72
2019-03-13T13:14:33.265Z,7.75
2019-03-13T13:15:59.253Z,7.08
2019-03-13T13:17:34.625Z,7.45
2019-03-13T13:18:59.015Z,7.10
2019-03-13T13:20:06.653Z,12.25
2019-03-13T13:21:14.247Z,5.72
2019-03-13T13:22:21.655Z,7.00
2019-03-13T13:23:29.048Z,6.15
2019-03-13T13:24:36.468Z,4.50
2019-03-13T13:25:43.948Z,6.40
2019-03-13T13:26:51.334Z,4.90
2019-03-13T13:27:58.368Z,4.53
2019-03-13T13:29:05.563Z,5.00
2019-03-13T13:30:15.693Z,4.53
2019-03-13T13:31:23.311Z,5.75
2019-03-13T13:32:32.077Z,5.00
2019-03-13T13:33:40.515Z,7.05
2019-03-13T13:34:47.683Z,4.55
2019-03-13T13:35:58.490Z,3.87
2019-03-13T13:37:07.427Z,5.05
2019-03-13T13:38:15.864Z,3.27
2019-03-13T13:39:24.411Z,3.83
2019-03-13T13:40:33.311Z,3.30
2019-03-13T13:41:41.616Z,3.98
2019-03-13T13:42:48.993Z,3.80
2019-03-13T13:43:57.517Z,6.25
2019-03-13T13:45:07.315Z,7.67
2019-03-13T13:46:34.442Z,4.33
2019-03-13T13:47:43.968Z,4.33
2019-03-13T13:48:55.700Z,5.60
2019-03-13T13:50:02.832Z,4.25
2019-03-13T13:51:12.114Z,4.78
2019-03-13T13:52:21.693Z,6.08
2019-03-13T13:53:30.884Z,4.55
2019-03-13T13:54:38.142Z,7.33
2019-03-13T13:55:46.727Z,3.95
2019-03-13T13:56:54.112Z,6.75
2019-03-13T13:58:01.962Z,5.65
2019-03-13T13:59:13.761Z,4.75
2019-03-13T14:00:25.764Z,5.37
2019-03-13T14:01:35.352Z,5.78
2019-03-13T14:02:44.229Z,8.33
2019-03-13T14:03:51.901Z,5.22
2019-03-13T14:05:00.749Z,5.47
2019-03-13T14:06:09.221Z,5.22
2019-03-13T14:07:16.647Z,4.85
2019-03-13T14:08:26.269Z,4.65
2019-03-13T14:09:33.741Z,15.55
2019-03-13T14:10:40.682Z,5.03
2019-03-13T14:11:47.973Z,6.08
2019-03-13T14:12:55.611Z,5.37
2019-03-13T14:14:03.212Z,6.97
2019-03-13T14:15:11.212Z,4.47
2019-03-13T14:16:19.130Z,5.42
2019-03-13T14:17:29.765Z,5.15
2019-03-13T14:18:40.219Z,5.25
2019-03-13T14:19:50.689Z,6.37
2019-03-13T14:20:59.383Z,4.53
2019-03-13T14:22:07.049Z,7.30
2019-03-13T14:23:17.102Z,5.25
2019-03-13T14:24:27.059Z,7.12
2019-03-13T14:25:37.619Z,4.55
2019-03-13T14:27:16.109Z,4.30
2019-03-13T14:28:25.651Z,4.55
2019-03-13T14:29:51.545Z,4.85
2019-03-13T14:31:06.421Z,4.92
2019-03-13T14:32:19.682Z,5.12
2019-03-13T14:33:28.401Z,6.12
2019-03-13T14:34:39.899Z,6.17
2019-03-13T14:35:47.879Z,9.38
2019-03-13T14:36:57.265Z,8.20
2019-03-13T14:38:07.231Z,6.55
2019-03-13T14:39:14.185Z,8.45
2019-03-13T14:40:22.186Z,7.25
2019-03-13T14:41:29.910Z,6.58
2019-03-13T14:42:37.629Z,6.95
2019-03-13T14:43:45.544Z,8.38
2019-03-13T14:44:53.553Z,6.53
2019-03-13T14:46:03.389Z,8.83
2019-03-13T14:47:15.489Z,9.40
2019-03-13T14:48:26.382Z,5.70
2019-03-13T14:49:34.200Z,4.87
2019-03-13T14:50:43.793Z,8.30
2019-03-13T14:51:54.919Z,6.83
2019-03-13T14:53:04.958Z,9.13
2019-03-13T14:54:15.395Z,14.05
2019-03-13T14:55:23.593Z,13.43
2019-03-13T14:56:31.320Z,11.12
2019-03-13T14:57:38.863Z,10.65
2019-03-13T14:58:48.500Z,6.90
2019-03-13T14:59:58.955Z,5.65
2019-03-13T15:01:09.981Z,6.60
2019-03-13T15:02:21.075Z,8.95
2019-03-13T15:03:32.680Z,7.60
2019-03-13T15:04:41.277Z,7.35
2019-03-13T15:05:51.706Z,8.65
2019-03-13T15:07:01.521Z,7.55
2019-03-13T15:08:12.671Z,7.37
2019-03-13T15:09:39.078Z,6.12
2019-03-13T15:10:49.298Z,6.67
2019-03-13T15:12:07.532Z,6.65
2019-03-13T15:13:22.559Z,6.92
2019-03-13T15:14:30.329Z,4.33
2019-03-13T15:15:40.548Z,4.12
2019-03-13T15:16:53.222Z,8.50
2019-03-13T15:18:03.482Z,8.43
2019-03-13T15:19:13.530Z,5.80
2019-03-13T15:20:21.170Z,6.15
2019-03-13T15:21:31.763Z,8.18
2019-03-13T15:22:41.798Z,9.43
2019-03-13T15:23:50.060Z,8.03
2019-03-13T15:25:02.831Z,5.72
2019-03-13T15:26:19.887Z,6.40
2019-03-13T15:27:29.951Z,6.55
2019-03-13T15:28:38.728Z,7.62
2019-03-13T15:29:46.920Z,8.45
2019-03-13T15:30:55.682Z,4.65
2019-03-13T15:32:07.603Z,4.85
2019-03-13T15:33:17.040Z,6.25
2019-03-13T15:34:41.643Z,10.60
2019-03-13T15:36:07.244Z,5.53
2019-03-13T15:37:38.351Z,8.43
2019-03-13T15:38:48.383Z,9.60
2019-03-13T15:39:56.540Z,7.20
2019-03-13T15:41:04.411Z,6.58
2019-03-13T15:42:12.348Z,7.60
2019-03-13T15:43:35.071Z,7.55
2019-03-13T15:44:58.309Z,8.33
2019-03-13T15:46:10.886Z,10.63
2019-03-13T15:47:30.338Z,10.45
2019-03-13T15:48:54.299Z,8.15
2019-03-13T15:50:10.276Z,10.85
2019-03-13T15:51:34.347Z,9.78
2019-03-13T15:52:53.308Z,9.45
2019-03-13T15:54:20.384Z,10.05
2019-03-13T15:55:38.791Z,8.93
2019-03-13T15:56:48.473Z,8.05
2019-03-13T15:58:00.372Z,9.35
2019-03-13T15:59:09.654Z,8.03
2019-03-13T16:00:26.607Z,10.25
2019-03-13T16:01:37.262Z,13.22
2019-03-13T16:02:47.640Z,10.78
2019-03-13T16:03:58.961Z,14.10
2019-03-13T16:05:09.323Z,12.43
2019-03-13T16:06:27.586Z,14.55
2019-03-13T16:07:37.529Z,14.07
2019-03-13T16:08:47.401Z,14.93
2019-03-13T16:09:56.105Z,12.35
2019-03-13T16:11:12.479Z,17.05